KMCC/MCC METAR and TAF weather

Enter ICAO airport designator
Station Type Date Time Source
KMCC METAR 2022/01/27 23:15 UTC NOAA

KMCC 272315Z AUTO 00000KT 10SM CLR 16/02 A3021 RMK AO2


Station Type Date Time Source
KMCC Decoded METAR 2022/01/27 23:15 UTC NOAA

Sacramento, McClellan Airfield Airport, CA, United States (KMCC) 38-40N 121-24W
Jan 27, 2022 - 06:15 PM EST / 2022.01.27 2315 UTC
Wind: Calm:0
Visibility: 10 mile(s):0
Sky conditions: clear
Temperature: 60 F (16 C)
Dew Point: 35 F (2 C)
Relative Humidity: 38%
Pressure (altimeter): 30.21 in. Hg (1023 hPa)
ob: KMCC 272315Z AUTO 00000KT 10SM CLR 16/02 A3021 RMK AO2
cycle: 23

Station Type Date Time Source
KMCC TAF 2022/01/27 18:24 UTC NOAA

TAF KMCC 271720Z 2718/2818 VRB05KT P6SM SKC

Example: see airport list